Time;durP1;ratioP1;P1;durP2;ratioP2;P2;SDS_P1;SDS_P2;PMS_P1;PMS_P2;Temp;Humidity;BMP_temperature;BMP_pressure;BME280_temperature;BME280_humidity;BME280_pressure;Samples;Min_cycle;Max_cycle;Signal;HPM_P1;HPM_P2
2021/08/14 07:11:03;;;;;;;;;17.50;15.50;;;;;;;;2513364;30;3137734;-78
2021/08/14 07:13:31;;;;;;;;;14.75;14.25;;;;;;;;2567807;38;151152;-81
2021/08/14 07:15:59;;;;;;;;;16.75;15.00;;;;;;;;2569023;38;149760;-81
2021/08/14 07:18:28;;;;;;;;;13.75;12.25;;;;;;;;2568218;38;150629;-77
2021/08/14 07:20:56;;;;;;;;;15.75;15.75;;;;;;;;2571274;30;151112;-76
2021/08/14 07:23:24;;;;;;;;;17.50;16.50;;;;;;;;2568383;30;149438;-78
2021/08/14 07:25:53;;;;;;;;;16.50;15.50;;;;;;;;2568240;30;150687;-87
2021/08/14 07:28:22;;;;;;;;;16.00;15.00;;;;;;;;2569093;30;151862;-79
2021/08/14 07:30:51;;;;;;;;;15.00;15.00;;;;;;;;2576852;30;149455;-75
2021/08/14 07:33:19;;;;;;;;;14.50;14.50;;;;;;;;2569649;38;151115;-80
2021/08/14 07:35:48;;;;;;;;;15.33;14.33;;;;;;;;2571143;30;149910;-81
2021/08/14 07:38:17;;;;;;;;;16.67;15.00;;;;;;;;2567723;38;151765;-87
2021/08/14 07:40:45;;;;;;;;;16.67;14.67;;;;;;;;2569680;38;152530;-86
2021/08/14 07:43:13;;;;;;;;;13.00;13.00;;;;;;;;2571322;30;149519;-80
2021/08/14 07:45:43;;;;;;;;;15.67;14.67;;;;;;;;2571019;30;151388;-78
2021/08/14 07:48:12;;;;;;;;;14.00;13.67;;;;;;;;2569742;30;151451;-82
2021/08/14 07:50:40;;;;;;;;;16.00;13.67;;;;;;;;2569659;38;150032;-82
2021/08/14 07:53:08;;;;;;;;;13.00;13.00;;;;;;;;2570580;30;150471;-81
2021/08/14 07:55:37;;;;;;;;;15.00;13.33;;;;;;;;2569561;30;150120;-79
2021/08/14 07:58:11;;;;;;;;;12.67;12.67;;;;;;;;2569046;30;150972;-80
2021/08/14 08:00:40;;;;;;;;;14.00;13.00;;;;;;;;2571440;30;151944;-77
2021/08/14 08:03:10;;;;;;;;;12.67;12.67;;;;;;;;2569781;30;149699;-80
2021/08/14 08:05:38;;;;;;;;;12.33;11.33;;;;;;;;2568827;38;150689;-77
2021/08/14 08:08:07;;;;;;;;;14.00;13.33;;;;;;;;2569053;38;152346;-80
2021/08/14 08:10:35;;;;;;;;;12.67;11.33;;;;;;;;2570478;30;149716;-84
2021/08/14 08:13:04;;;;;;;;;13.33;12.33;;;;;;;;2570807;30;150644;-82
2021/08/14 08:15:32;;;;;;;;;15.67;14.00;;;;;;;;2571823;30;151817;-82
2021/08/14 08:18:01;;;;;;;;;20.33;20.33;;;;;;;;2567699;30;151623;-85
2021/08/14 08:20:31;;;;;;;;;12.00;12.00;;;;;;;;2565967;38;151019;-77
2021/08/14 08:22:59;;;;;;;;;12.33;12.33;;;;;;;;2564507;38;149850;-80
2021/08/14 08:25:27;;;;;;;;;15.00;13.00;;;;;;;;2563622;38;151328;-81
2021/08/14 08:28:01;;;;;;;;;15.67;13.33;;;;;;;;2565181;30;151290;-83
2021/08/14 08:30:29;;;;;;;;;13.00;12.00;;;;;;;;2567633;30;149429;-84
2021/08/14 08:32:58;;;;;;;;;10.00;10.00;;;;;;;;2565250;38;150717;-74
2021/08/14 08:35:26;;;;;;;;;10.75;10.00;;;;;;;;2567400;30;152169;-78
2021/08/14 08:37:56;;;;;;;;;10.00;8.25;;;;;;;;2568609;30;149671;-75
2021/08/14 08:40:24;;;;;;;;;10.00;10.00;;;;;;;;2566723;30;152187;-77
2021/08/14 08:42:52;;;;;;;;;10.00;10.00;;;;;;;;2566678;30;149929;-77
2021/08/14 08:45:21;;;;;;;;;9.50;8.00;;;;;;;;2565773;30;151523;-78
2021/08/14 08:47:50;;;;;;;;;13.50;13.00;;;;;;;;2566981;30;150412;-82
2021/08/14 08:50:18;;;;;;;;;11.00;11.00;;;;;;;;2567924;30;150704;-80
2021/08/14 08:52:47;;;;;;;;;10.00;9.75;;;;;;;;2566573;38;152437;-80
2021/08/14 08:55:17;;;;;;;;;9.75;9.75;;;;;;;;2564006;38;152238;-80
2021/08/14 08:57:46;;;;;;;;;11.00;11.00;;;;;;;;2565838;30;149639;-84
2021/08/14 09:00:17;;;;;;;;;8.00;8.00;;;;;;;;2570599;30;150781;-84
2021/08/14 09:02:46;;;;;;;;;11.00;9.00;;;;;;;;2564626;30;149570;-81
2021/08/14 09:05:15;;;;;;;;;10.00;9.75;;;;;;;;2565686;38;151338;-78
2021/08/14 09:07:44;;;;;;;;;12.25;12.25;;;;;;;;2566092;30;151160;-77
2021/08/14 09:10:13;;;;;;;;;12.50;11.00;;;;;;;;2566958;30;150012;-83
2021/08/14 09:12:44;;;;;;;;;10.50;10.50;;;;;;;;2568078;30;150677;-83
2021/08/14 09:15:19;;;;;;;;;10.25;10.25;;;;;;;;2567868;30;151229;-83
2021/08/14 09:17:47;;;;;;;;;11.00;11.00;;;;;;;;2564742;30;149227;-78
2021/08/14 09:20:17;;;;;;;;;11.75;11.75;;;;;;;;2569803;30;151342;-80
2021/08/14 09:23:04;;;;;;;;;14.00;13.50;;;;;;;;2566457;38;149492;-78
2021/08/14 09:25:43;;;;;;;;;16.00;13.50;;;;;;;;2563691;38;150184;-75
2021/08/14 09:28:13;;;;;;;;;13.50;12.75;;;;;;;;2567345;30;151931;-75
2021/08/14 09:30:46;;;;;;;;;14.00;14.00;;;;;;;;2564528;38;149459;-75
2021/08/14 09:33:16;;;;;;;;;13.00;12.25;;;;;;;;2566307;30;150965;-75
2021/08/14 09:35:45;;;;;;;;;11.00;11.00;;;;;;;;2566148;30;151408;-75
2021/08/14 09:38:14;;;;;;;;;11.50;11.00;;;;;;;;2566562;30;149692;-76
2021/08/14 09:40:44;;;;;;;;;12.25;11.00;;;;;;;;2567413;30;150739;-72
2021/08/14 09:43:14;;;;;;;;;12.25;12.25;;;;;;;;2566629;38;151918;-82
2021/08/14 09:45:55;;;;;;;;;15.00;14.00;;;;;;;;2563027;38;150616;-82
2021/08/14 09:48:25;;;;;;;;;13.00;12.50;;;;;;;;2565374;30;151049;-81
2021/08/14 09:50:53;;;;;;;;;13.00;12.25;;;;;;;;2564318;38;149590;-82
2021/08/14 09:53:22;;;;;;;;;15.00;14.00;;;;;;;;2565078;30;151582;-82
2021/08/14 09:55:53;;;;;;;;;5.75;5.25;;;;;;;;2565312;30;152324;-88
2021/08/14 09:58:24;;;;;;;;;16.00;14.00;;;;;;;;2565960;30;150211;-74
2021/08/14 10:00:53;;;;;;;;;11.00;10.50;;;;;;;;2568405;30;151477;-73
2021/08/14 10:03:21;;;;;;;;;13.25;13.00;;;;;;;;2561583;31;152003;-78
2021/08/14 10:05:50;;;;;;;;;13.00;12.25;;;;;;;;2567431;30;149415;-81
2021/08/14 10:08:20;;;;;;;;;13.50;12.00;;;;;;;;2567702;30;151254;-80
2021/08/14 10:10:48;;;;;;;;;12.75;12.75;;;;;;;;2565809;30;149448;-80
2021/08/14 10:13:17;;;;;;;;;14.00;14.00;;;;;;;;2566550;30;151936;-80
2021/08/14 10:15:47;;;;;;;;;12.25;12.25;;;;;;;;2564712;30;150900;-80
2021/08/14 10:18:17;;;;;;;;;13.00;11.25;;;;;;;;2564744;38;149503;-81
2021/08/14 10:20:46;;;;;;;;;13.25;13.00;;;;;;;;2567483;30;150804;-85
2021/08/14 10:23:15;;;;;;;;;13.25;12.00;;;;;;;;2564241;38;152296;-79
2021/08/14 10:25:44;;;;;;;;;10.50;9.50;;;;;;;;2565075;30;149389;-79
2021/08/14 10:28:13;;;;;;;;;11.75;10.25;;;;;;;;2568570;38;151633;-81
2021/08/14 10:30:46;;;;;;;;;12.75;10.75;;;;;;;;2565548;30;149921;-80
2021/08/14 10:33:30;;;;;;;;;11.00;10.25;;;;;;;;2567763;30;149542;-79
2021/08/14 10:36:01;;;;;;;;;11.25;11.00;;;;;;;;2568727;30;151262;-79
2021/08/14 10:38:39;;;;;;;;;10.00;10.00;;;;;;;;2565920;30;149474;-75
2021/08/14 10:41:08;;;;;;;;;9.75;9.75;;;;;;;;2568105;30;151423;-75
2021/08/14 10:43:51;;;;;;;;;12.00;10.00;;;;;;;;2564486;38;151801;-76
2021/08/14 10:46:34;;;;;;;;;8.75;8.00;;;;;;;;2566957;30;149569;-75
2021/08/14 10:49:03;;;;;;;;;10.25;9.75;;;;;;;;2564871;30;150436;-75
2021/08/14 10:51:46;;;;;;;;;12.25;10.00;;;;;;;;2567135;30;151478;-75
2021/08/14 10:54:16;;;;;;;;;8.75;8.75;;;;;;;;2569362;30;149448;-76
2021/08/14 10:56:54;;;;;;;;;11.75;11.25;;;;;;;;2568326;30;151234;-75
2021/08/14 10:59:40;;;;;;;;;12.00;12.00;;;;;;;;2565490;30;150771;-75
2021/08/14 11:02:10;;;;;;;;;13.25;11.00;;;;;;;;2566185;30;151236;-75
2021/08/14 11:04:39;;;;;;;;;9.67;9.67;;;;;;;;2566350;30;152400;-75
2021/08/14 11:07:22;;;;;;;;;9.75;8.50;;;;;;;;2564800;30;150988;-75
2021/08/14 11:10:10;;;;;;;;;11.25;10.25;;;;;;;;2565314;38;151151;-75
2021/08/14 11:12:40;;;;;;;;;10.50;10.50;;;;;;;;2564333;30;151857;-75
2021/08/14 11:15:18;;;;;;;;;9.25;8.00;;;;;;;;2567157;30;149978;-76
2021/08/14 11:17:47;;;;;;;;;10.25;9.00;;;;;;;;2566013;30;151296;-76
2021/08/14 11:20:30;;;;;;;;;11.25;9.75;;;;;;;;2566491;30;149773;-74
2021/08/14 11:22:59;;;;;;;;;8.33;8.33;;;;;;;;2564465;30;150637;-75
2021/08/14 11:25:29;;;;;;;;;9.67;9.00;;;;;;;;2566520;30;151210;-77
2021/08/14 11:27:59;;;;;;;;;10.67;10.67;;;;;;;;2568201;30;149662;-76
2021/08/14 11:30:28;;;;;;;;;9.67;9.67;;;;;;;;2564803;38;151449;-76
2021/08/14 11:32:56;;;;;;;;;9.00;8.00;;;;;;;;2565422;38;151670;-78
2021/08/14 11:35:26;;;;;;;;;10.75;10.25;;;;;;;;2569805;30;149948;-83
2021/08/14 11:37:55;;;;;;;;;8.67;8.67;;;;;;;;2568342;30;151250;-77
2021/08/14 11:40:26;;;;;;;;;11.67;10.00;;;;;;;;2564753;38;150094;-78
2021/08/14 11:42:57;;;;;;;;;10.25;10.25;;;;;;;;2565833;30;151254;-78
2021/08/14 11:45:26;;;;;;;;;11.00;9.75;;;;;;;;2567497;30;151925;-75
2021/08/14 11:47:58;;;;;;;;;10.67;10.67;;;;;;;;2565836;30;149356;-78
2021/08/14 11:50:27;;;;;;;;;10.25;10.25;;;;;;;;2564868;38;150615;-76
2021/08/14 11:52:55;;;;;;;;;11.00;9.33;;;;;;;;2566325;30;151075;-74
2021/08/14 12:05:46;;;;;;;;;11.00;11.00;;;;;;;;2565085;30;151484;-72
2021/08/14 12:08:20;;;;;;;;;12.33;10.67;;;;;;;;2566222;30;149395;-72
2021/08/14 12:10:49;;;;;;;;;6.00;6.00;;;;;;;;2563470;30;151470;-71
2021/08/14 12:13:22;;;;;;;;;10.33;10.33;;;;;;;;2568105;30;151870;-70
2021/08/14 12:15:50;;;;;;;;;11.00;10.00;;;;;;;;2564904;38;149473;-72
2021/08/14 12:18:34;;;;;;;;;10.33;9.00;;;;;;;;2567290;30;151400;-71
2021/08/14 12:21:05;;;;;;;;;10.33;10.33;;;;;;;;2567158;38;151288;-71
2021/08/14 12:23:35;;;;;;;;;9.67;9.67;;;;;;;;2566560;38;150587;-70
2021/08/14 12:26:04;;;;;;;;;10.00;9.33;;;;;;;;2566852;30;151141;-71
2021/08/14 12:28:33;;;;;;;;;11.67;11.67;;;;;;;;2567446;30;149595;-70
2021/08/14 12:31:02;;;;;;;;;11.00;9.00;;;;;;;;2564846;38;150608;-71
2021/08/14 12:33:32;;;;;;;;;10.33;9.67;;;;;;;;2566208;30;151695;-70
2021/08/14 12:36:01;;;;;;;;;11.33;11.00;;;;;;;;2566602;30;149295;-70
2021/08/14 12:38:32;;;;;;;;;11.33;10.67;;;;;;;;2568238;30;151225;-69
2021/08/14 12:41:00;;;;;;;;;10.67;10.00;;;;;;;;2569053;30;151184;-71
2021/08/14 12:43:29;;;;;;;;;9.00;9.00;;;;;;;;2570212;30;149441;-73
2021/08/14 12:45:57;;;;;;;;;13.00;11.00;;;;;;;;2566139;30;152043;-71
2021/08/14 12:48:25;;;;;;;;;11.00;11.00;;;;;;;;2567815;30;149552;-72
2021/08/14 12:50:54;;;;;;;;;12.00;11.00;;;;;;;;2567010;30;151490;-72
2021/08/14 12:53:30;;;;;;;;;7.00;7.00;;;;;;;;2564549;30;151257;-72
2021/08/14 12:56:00;;;;;;;;;10.33;8.67;;;;;;;;2566470;30;149924;-73
2021/08/14 12:58:30;;;;;;;;;12.00;9.67;;;;;;;;2566274;30;154204;-72
2021/08/14 13:00:58;;;;;;;;;10.67;9.00;;;;;;;;2568708;30;151468;-71
2021/08/14 13:03:27;;;;;;;;;8.33;8.33;;;;;;;;2564470;30;149557;-71
2021/08/14 13:05:56;;;;;;;;;11.00;10.00;;;;;;;;2568400;30;150626;-72
2021/08/14 13:08:24;;;;;;;;;10.00;9.00;;;;;;;;2564866;38;150002;-72
2021/08/14 13:10:52;;;;;;;;;10.67;10.00;;;;;;;;2564154;30;150627;-72
2021/08/14 13:13:22;;;;;;;;;9.00;8.67;;;;;;;;2563053;30;152170;-71
2021/08/14 13:15:50;;;;;;;;;8.33;8.00;;;;;;;;2564246;30;149838;-71
2021/08/14 13:18:18;;;;;;;;;10.00;10.00;;;;;;;;2565873;30;150736;-71
2021/08/14 13:20:50;;;;;;;;;10.00;8.33;;;;;;;;2564755;38;151912;-71
2021/08/14 13:23:18;;;;;;;;;10.33;10.00;;;;;;;;2563064;38;149640;-73
2021/08/14 13:25:46;;;;;;;;;8.00;8.00;;;;;;;;2563822;38;151407;-71
2021/08/14 13:28:15;;;;;;;;;9.00;7.33;;;;;;;;2566542;30;151719;-73
2021/08/14 13:30:44;;;;;;;;;8.67;7.67;;;;;;;;2564960;38;151833;-71
2021/08/14 13:33:13;;;;;;;;;10.00;7.33;;;;;;;;2568105;30;151543;-72
2021/08/14 13:35:41;;;;;;;;;8.33;7.00;;;;;;;;2565937;30;149655;-71
2021/08/14 13:38:09;;;;;;;;;9.00;7.00;;;;;;;;2567926;30;150759;-71
2021/08/14 13:40:37;;;;;;;;;7.33;7.33;;;;;;;;2566539;30;151279;-72
2021/08/14 13:43:06;;;;;;;;;8.67;8.00;;;;;;;;2565474;30;149583;-71
2021/08/14 13:45:34;;;;;;;;;8.00;7.00;;;;;;;;2566436;30;151520;-73
2021/08/14 13:48:04;;;;;;;;;9.00;8.00;;;;;;;;2570870;30;151032;-75
2021/08/14 13:50:33;;;;;;;;;6.25;6.00;;;;;;;;2563739;38;151543;-72
2021/08/14 13:53:02;;;;;;;;;5.00;5.00;;;;;;;;2566602;30;151690;-72
2021/08/14 13:55:31;;;;;;;;;7.00;7.00;;;;;;;;2565029;38;149300;-73
2021/08/14 13:57:59;;;;;;;;;8.75;6.75;;;;;;;;2566268;38;151304;-73
2021/08/14 14:00:28;;;;;;;;;5.00;5.00;;;;;;;;2564958;30;152021;-72
2021/08/14 14:02:56;;;;;;;;;8.25;7.00;;;;;;;;2563699;30;150794;-72
2021/08/14 14:05:26;;;;;;;;;13.33;12.00;;;;;;;;2567936;30;150531;-81
2021/08/14 14:07:54;;;;;;;;;12.67;12.67;;;;;;;;2566543;30;151428;-73
2021/08/14 14:10:22;;;;;;;;;14.00;14.00;;;;;;;;2569390;30;149819;-73
2021/08/14 14:12:51;;;;;;;;;12.00;11.67;;;;;;;;2566399;30;150861;-73
2021/08/14 14:15:19;;;;;;;;;13.33;12.00;;;;;;;;2565352;30;149444;-73
2021/08/14 14:17:47;;;;;;;;;10.33;9.33;;;;;;;;2566429;30;151120;-72
2021/08/14 14:20:16;;;;;;;;;14.33;13.33;;;;;;;;2565602;30;152315;-72
2021/08/14 14:22:46;;;;;;;;;14.00;12.00;;;;;;;;2565495;38;149894;-72
2021/08/14 14:25:15;;;;;;;;;6.33;6.33;;;;;;;;2569109;30;150381;-73
2021/08/14 14:27:46;;;;;;;;;12.33;12.33;;;;;;;;2565610;30;151929;-72
2021/08/14 14:30:15;;;;;;;;;11.00;11.00;;;;;;;;2563360;30;149850;-71
2021/08/14 14:32:43;;;;;;;;;11.00;11.00;;;;;;;;2566852;38;150597;-70
2021/08/14 14:35:12;;;;;;;;;12.00;11.00;;;;;;;;2564952;30;149894;-72
2021/08/14 14:37:41;;;;;;;;;10.00;9.67;;;;;;;;2564509;38;151424;-70
2021/08/14 14:40:12;;;;;;;;;11.33;10.00;;;;;;;;2568167;30;151044;-76
2021/08/14 14:42:41;;;;;;;;;8.33;7.00;;;;;;;;2566283;38;149724;-80
2021/08/14 14:45:10;;;;;;;;;12.33;10.00;;;;;;;;2565953;38;150940;-73
2021/08/14 14:47:38;;;;;;;;;10.67;10.67;;;;;;;;2563794;38;150945;-72
2021/08/14 14:50:07;;;;;;;;;10.67;10.00;;;;;;;;2565218;38;149188;-71
2021/08/14 14:52:37;;;;;;;;;9.00;8.00;;;;;;;;2564321;38;150976;-75
2021/08/14 14:55:05;;;;;;;;;7.33;7.33;;;;;;;;2568640;30;151200;-78
2021/08/14 14:57:35;;;;;;;;;10.00;10.00;;;;;;;;2565330;38;151414;-80
2021/08/14 15:00:03;;;;;;;;;9.33;7.67;;;;;;;;2567880;30;151424;-72
2021/08/14 15:02:32;;;;;;;;;11.67;10.00;;;;;;;;2568461;30;149390;-71
2021/08/14 15:05:00;;;;;;;;;12.00;12.00;;;;;;;;2563330;38;150536;-73
2021/08/14 15:07:28;;;;;;;;;11.67;11.00;;;;;;;;2564803;38;151232;-75
2021/08/14 15:09:57;;;;;;;;;10.00;9.67;;;;;;;;2566506;38;149349;-82
2021/08/14 15:12:25;;;;;;;;;11.33;10.00;;;;;;;;2567360;30;150904;-74
2021/08/14 15:14:56;;;;;;;;;14.00;11.67;;;;;;;;2564490;30;151078;-76
2021/08/14 15:17:25;;;;;;;;;9.00;9.00;;;;;;;;2567420;30;149530;-73
2021/08/14 15:19:53;;;;;;;;;9.67;9.67;;;;;;;;2562267;30;151858;-73
2021/08/14 15:22:21;;;;;;;;;14.67;10.67;;;;;;;;2565915;30;149630;-74
2021/08/14 15:24:50;;;;;;;;;12.67;11.67;;;;;;;;2562481;38;151567;-76
2021/08/14 15:27:18;;;;;;;;;11.67;10.67;;;;;;;;2565707;30;151967;-74
2021/08/14 15:29:47;;;;;;;;;9.33;9.00;;;;;;;;2567666;30;149661;-75
2021/08/14 15:32:17;;;;;;;;;8.33;8.33;;;;;;;;2562952;38;150598;-75
2021/08/14 15:34:45;;;;;;;;;13.67;10.33;;;;;;;;2565407;30;151433;-70
2021/08/14 15:37:13;;;;;;;;;12.00;10.00;;;;;;;;2567180;30;150135;-71
2021/08/14 15:39:42;;;;;;;;;10.00;10.00;;;;;;;;2567753;30;150384;-70
2021/08/14 15:42:11;;;;;;;;;8.33;8.33;;;;;;;;2564661;38;149716;-71
2021/08/14 15:44:40;;;;;;;;;9.67;9.67;;;;;;;;2563205;38;150687;-71
2021/08/14 15:47:12;;;;;;;;;8.67;8.67;;;;;;;;2564864;38;152244;-71
2021/08/14 15:49:41;;;;;;;;;7.00;7.00;;;;;;;;2566491;30;149645;-71
2021/08/14 15:52:10;;;;;;;;;9.00;9.00;;;;;;;;2565246;30;152655;-72
2021/08/14 15:54:38;;;;;;;;;9.33;9.33;;;;;;;;2566353;30;151158;-72
2021/08/14 15:57:08;;;;;;;;;10.00;7.67;;;;;;;;2565030;38;149499;-71
2021/08/14 15:59:36;;;;;;;;;11.67;10.00;;;;;;;;2565765;38;150502;-71
2021/08/14 16:02:05;;;;;;;;;9.33;9.00;;;;;;;;2565915;38;149660;-76
2021/08/14 16:04:33;;;;;;;;;12.00;10.33;;;;;;;;2569180;30;150825;-70
2021/08/14 16:07:03;;;;;;;;;12.00;9.00;;;;;;;;2565625;38;151049;-71
2021/08/14 16:09:31;;;;;;;;;8.00;8.00;;;;;;;;2567792;30;149466;-70
2021/08/14 16:12:01;;;;;;;;;13.00;11.33;;;;;;;;2564153;30;151451;-72
2021/08/14 16:14:29;;;;;;;;;7.67;7.67;;;;;;;;2566845;30;151020;-71
2021/08/14 16:16:57;;;;;;;;;7.00;7.00;;;;;;;;2564880;38;149207;-71
2021/08/14 16:19:26;;;;;;;;;10.67;8.33;;;;;;;;2562665;38;151290;-70
2021/08/14 16:21:54;;;;;;;;;1.00;0.00;;;;;;;;2566722;38;151904;-70
2021/08/14 16:24:24;;;;;;;;;8.00;8.00;;;;;;;;2562949;38;150961;-70
2021/08/14 16:26:52;;;;;;;;;7.67;7.67;;;;;;;;2564900;30;152159;-71
2021/08/14 16:29:20;;;;;;;;;8.67;8.67;;;;;;;;2564997;30;149825;-71
2021/08/14 16:31:49;;;;;;;;;9.00;9.00;;;;;;;;2566494;30;151152;-70
2021/08/14 16:34:17;;;;;;;;;9.67;9.67;;;;;;;;2566199;30;151171;-70
2021/08/14 16:36:45;;;;;;;;;11.00;9.00;;;;;;;;2565276;30;149491;-69
2021/08/14 16:39:14;;;;;;;;;11.50;11.00;;;;;;;;2564891;30;150871;-71
2021/08/14 16:41:43;;;;;;;;;11.00;10.00;;;;;;;;2566064;30;151219;-72
2021/08/14 16:44:14;;;;;;;;;12.67;12.67;;;;;;;;2566085;38;149437;-71
2021/08/14 16:46:42;;;;;;;;;15.00;13.33;;;;;;;;2563563;38;151765;-71
2021/08/14 16:49:11;;;;;;;;;10.67;10.67;;;;;;;;2562277;30;150291;-74
2021/08/14 16:51:39;;;;;;;;;12.33;11.33;;;;;;;;2564514;38;150689;-70
2021/08/14 16:54:07;;;;;;;;;14.00;12.00;;;;;;;;2562773;38;151109;-73
2021/08/14 16:56:36;;;;;;;;;11.33;11.33;;;;;;;;2564362;38;149778;-74
2021/08/14 16:59:05;;;;;;;;;10.67;10.00;;;;;;;;2566005;30;151294;-73
2021/08/14 17:01:34;;;;;;;;;16.00;13.33;;;;;;;;2567035;30;151369;-71
2021/08/14 17:04:03;;;;;;;;;18.00;14.00;;;;;;;;2567639;30;149584;-75
2021/08/14 17:06:31;;;;;;;;;11.33;11.33;;;;;;;;2569455;30;150671;-74
2021/08/14 17:08:59;;;;;;;;;9.67;9.67;;;;;;;;2564314;30;149583;-75
2021/08/14 17:11:30;;;;;;;;;11.33;9.67;;;;;;;;2569637;30;150492;-73
2021/08/14 17:13:58;;;;;;;;;12.00;12.00;;;;;;;;2565048;38;151702;-74
2021/08/14 17:16:28;;;;;;;;;14.00;14.00;;;;;;;;2565180;30;149672;-73
2021/08/14 17:18:56;;;;;;;;;13.67;13.33;;;;;;;;2566103;30;151364;-72
2021/08/14 17:21:25;;;;;;;;;11.67;11.67;;;;;;;;2566185;30;152010;-73
2021/08/14 17:23:53;;;;;;;;;11.67;11.67;;;;;;;;2564365;30;150493;-73
2021/08/14 17:26:21;;;;;;;;;14.00;12.00;;;;;;;;2569712;30;150928;-74
2021/08/14 17:28:50;;;;;;;;;13.00;11.67;;;;;;;;2567251;38;152113;-72
2021/08/14 17:31:18;;;;;;;;;13.33;12.00;;;;;;;;2564044;38;150702;-73
2021/08/14 17:33:48;;;;;;;;;13.00;11.67;;;;;;;;2567567;30;151023;-72
2021/08/14 17:36:16;;;;;;;;;11.00;10.00;;;;;;;;2567423;30;149455;-72
2021/08/14 17:38:44;;;;;;;;;11.00;11.00;;;;;;;;2567026;30;151298;-72
2021/08/14 17:41:13;;;;;;;;;11.67;11.33;;;;;;;;2564120;30;151041;-72
2021/08/14 17:43:41;;;;;;;;;11.00;11.00;;;;;;;;2566077;30;149802;-72
2021/08/14 17:46:09;;;;;;;;;11.00;11.00;;;;;;;;2568021;30;151558;-72
2021/08/14 17:48:38;;;;;;;;;11.00;11.00;;;;;;;;2563048;30;151979;-73
2021/08/14 17:51:08;;;;;;;;;10.00;9.00;;;;;;;;2567439;38;149429;-73
2021/08/14 17:53:36;;;;;;;;;9.33;9.00;;;;;;;;2562574;38;151000;-73
2021/08/14 17:56:05;;;;;;;;;9.00;9.00;;;;;;;;2568462;30;150925;-71
2021/08/14 17:58:33;;;;;;;;;10.00;10.00;;;;;;;;2569799;30;151516;-72
2021/08/14 18:01:02;;;;;;;;;12.67;11.00;;;;;;;;2566802;38;151946;-69
2021/08/14 18:03:30;;;;;;;;;9.67;9.00;;;;;;;;2565599;38;149190;-71
2021/08/14 18:05:58;;;;;;;;;11.00;10.00;;;;;;;;2562997;38;151386;-70
2021/08/14 18:08:28;;;;;;;;;10.00;10.00;;;;;;;;2564536;38;152111;-71
2021/08/14 18:10:56;;;;;;;;;13.00;12.00;;;;;;;;2570541;30;149631;-71
2021/08/14 18:13:24;;;;;;;;;12.67;10.67;;;;;;;;2562357;38;151985;-72
2021/08/14 18:15:53;;;;;;;;;13.33;11.67;;;;;;;;2565277;30;149420;-71
2021/08/14 18:18:22;;;;;;;;;11.00;11.00;;;;;;;;2565997;38;150977;-70
2021/08/14 18:20:51;;;;;;;;;12.33;12.33;;;;;;;;2568331;30;151019;-70
2021/08/14 18:23:20;;;;;;;;;12.00;12.00;;;;;;;;2564399;30;150273;-69
2021/08/14 18:25:50;;;;;;;;;14.33;13.33;;;;;;;;2567235;30;151165;-69
2021/08/14 18:28:18;;;;;;;;;16.67;14.00;;;;;;;;2563426;38;151452;-71
2021/08/14 18:30:47;;;;;;;;;12.00;12.00;;;;;;;;2568597;30;149207;-70
2021/08/14 18:33:16;;;;;;;;;14.00;13.33;;;;;;;;2567797;30;151296;-70
2021/08/14 18:35:45;;;;;;;;;13.33;12.67;;;;;;;;2563781;38;149694;-70
2021/08/14 18:38:13;;;;;;;;;15.00;14.00;;;;;;;;2566297;30;150748;-71
2021/08/14 18:40:42;;;;;;;;;19.00;16.00;;;;;;;;2565289;38;151327;-70
2021/08/14 18:43:12;;;;;;;;;14.00;13.33;;;;;;;;2564109;38;149403;-69
2021/08/14 18:45:41;;;;;;;;;16.67;15.67;;;;;;;;2563647;30;151476;-69
2021/08/14 18:48:09;;;;;;;;;17.00;16.00;;;;;;;;2565739;38;152056;-69
2021/08/14 18:50:37;;;;;;;;;17.00;16.00;;;;;;;;2565606;38;149888;-70
2021/08/14 18:53:07;;;;;;;;;17.67;16.33;;;;;;;;2565475;30;150845;-70
2021/08/14 18:55:35;;;;;;;;;16.67;15.00;;;;;;;;2566708;30;151314;-71
2021/08/14 18:58:04;;;;;;;;;18.00;16.67;;;;;;;;2568413;30;150645;-72
2021/08/14 19:00:33;;;;;;;;;16.33;16.00;;;;;;;;2565248;30;153484;-72
2021/08/14 19:03:02;;;;;;;;;15.33;15.33;;;;;;;;2565148;38;149650;-71
2021/08/14 19:05:30;;;;;;;;;17.33;17.33;;;;;;;;2566238;30;151424;-70
2021/08/14 19:07:58;;;;;;;;;18.00;17.33;;;;;;;;2565873;30;151144;-72
2021/08/14 19:10:30;;;;;;;;;20.67;17.00;;;;;;;;2564378;38;151095;-72
2021/08/14 19:13:02;;;;;;;;;17.67;17.33;;;;;;;;2565095;38;151319;-71
2021/08/14 19:15:30;;;;;;;;;16.33;16.33;;;;;;;;2562380;38;150951;-71
2021/08/14 19:18:02;;;;;;;;;20.00;18.33;;;;;;;;2567328;30;149735;-71
2021/08/14 19:20:30;;;;;;;;;19.00;19.00;;;;;;;;2563358;38;154602;-73
2021/08/14 19:22:58;;;;;;;;;16.00;16.00;;;;;;;;2566106;30;149793;-71
2021/08/14 19:25:27;;;;;;;;;18.67;17.33;;;;;;;;2562163;38;150682;-71
2021/08/14 19:27:55;;;;;;;;;19.33;18.00;;;;;;;;2561938;38;151927;-72
2021/08/14 19:30:24;;;;;;;;;19.00;17.33;;;;;;;;2563170;30;149707;-71
2021/08/14 19:32:52;;;;;;;;;15.67;15.67;;;;;;;;2563659;30;151284;-70
2021/08/14 19:35:24;;;;;;;;;20.33;17.33;;;;;;;;2565000;38;150978;-71
2021/08/14 19:37:53;;;;;;;;;19.67;18.00;;;;;;;;2565394;30;149425;-72
2021/08/14 19:40:23;;;;;;;;;15.33;15.33;;;;;;;;2567723;30;150622;-71
2021/08/14 19:42:52;;;;;;;;;16.00;16.00;;;;;;;;2563438;30;150344;-69
2021/08/14 19:45:20;;;;;;;;;14.33;14.33;;;;;;;;2562217;38;151440;-74
2021/08/14 19:47:49;;;;;;;;;18.00;15.67;;;;;;;;2564860;30;151272;-73
2021/08/14 19:50:17;;;;;;;;;15.67;15.33;;;;;;;;2564874;30;149514;-72
2021/08/14 19:52:47;;;;;;;;;7.67;6.67;;;;;;;;2564884;30;151818;-72
2021/08/14 19:55:15;;;;;;;;;19.00;17.67;;;;;;;;2567296;30;151964;-71
2021/08/14 19:57:43;;;;;;;;;19.33;16.67;;;;;;;;2567138;30;150000;-71
2021/08/14 20:00:13;;;;;;;;;18.00;16.67;;;;;;;;2563446;38;152309;-71
2021/08/14 20:02:41;;;;;;;;;17.33;17.00;;;;;;;;2568080;30;150017;-72
2021/08/14 20:05:10;;;;;;;;;15.33;15.00;;;;;;;;2562900;38;150678;-71
2021/08/14 20:07:38;;;;;;;;;19.67;17.67;;;;;;;;2562514;38;150748;-70
2021/08/14 20:10:08;;;;;;;;;18.33;17.33;;;;;;;;2562435;38;149927;-70
2021/08/14 20:12:37;;;;;;;;;19.67;17.33;;;;;;;;2567182;30;150799;-71
2021/08/14 20:15:06;;;;;;;;;17.33;16.00;;;;;;;;2564649;38;151764;-72
2021/08/14 20:17:34;;;;;;;;;17.00;17.00;;;;;;;;2564853;30;149392;-71
2021/08/14 20:20:02;;;;;;;;;16.00;16.00;;;;;;;;2566479;30;150626;-70
2021/08/14 20:22:31;;;;;;;;;17.67;15.33;;;;;;;;2565890;38;151885;-73
2021/08/14 20:24:59;;;;;;;;;17.00;17.00;;;;;;;;2564219;38;150674;-71
2021/08/14 20:27:29;;;;;;;;;19.00;18.00;;;;;;;;2564956;38;151326;-71
2021/08/14 20:29:57;;;;;;;;;16.67;15.00;;;;;;;;2569975;30;149700;-69
2021/08/14 20:32:25;;;;;;;;;16.33;16.33;;;;;;;;2565636;38;151019;-71
2021/08/14 20:34:53;;;;;;;;;19.00;17.67;;;;;;;;2562987;38;151080;-72
2021/08/14 20:37:22;;;;;;;;;15.50;14.50;;;;;;;;2566436;30;149368;-68
2021/08/14 20:39:50;;;;;;;;;18.00;17.00;;;;;;;;2566059;30;150616;-71
2021/08/14 20:42:20;;;;;;;;;15.00;15.00;;;;;;;;2567902;30;151851;-70
2021/08/14 20:44:49;;;;;;;;;16.00;16.00;;;;;;;;2570303;30;149962;-70
2021/08/14 20:47:17;;;;;;;;;19.67;18.33;;;;;;;;2564659;38;151333;-69
2021/08/14 20:49:46;;;;;;;;;22.33;19.00;;;;;;;;2565558;30;149558;-69
2021/08/14 20:52:14;;;;;;;;;17.33;17.33;;;;;;;;2566950;30;150551;-70
2021/08/14 20:54:42;;;;;;;;;19.00;18.33;;;;;;;;2564977;30;151638;-71
2021/08/14 20:57:11;;;;;;;;;19.00;17.00;;;;;;;;2566550;30;149885;-72
2021/08/14 20:59:39;;;;;;;;;19.33;17.00;;;;;;;;2565538;30;151448;-72
2021/08/14 21:02:09;;;;;;;;;12.33;12.33;;;;;;;;2564746;38;153200;-72
2021/08/14 21:04:37;;;;;;;;;18.00;15.33;;;;;;;;2563675;38;149654;-70
2021/08/14 21:07:06;;;;;;;;;18.33;17.00;;;;;;;;2569872;30;150513;-71
2021/08/14 21:09:34;;;;;;;;;12.67;12.00;;;;;;;;2565029;38;149534;-70
2021/08/14 21:12:03;;;;;;;;;19.67;18.33;;;;;;;;2568743;30;150687;-71
2021/08/14 21:14:32;;;;;;;;;15.00;15.00;;;;;;;;2564686;30;151691;-70
2021/08/14 21:17:00;;;;;;;;;18.67;16.00;;;;;;;;2565561;30;149557;-71
2021/08/14 21:19:30;;;;;;;;;20.00;19.00;;;;;;;;2566006;30;151536;-72
2021/08/14 21:21:58;;;;;;;;;20.33;18.67;;;;;;;;2564227;30;151577;-72
2021/08/14 21:24:26;;;;;;;;;17.33;16.00;;;;;;;;2564305;30;149414;-72
2021/08/14 21:26:55;;;;;;;;;18.00;16.67;;;;;;;;2565605;30;151433;-71
2021/08/14 21:29:23;;;;;;;;;19.00;19.00;;;;;;;;2568426;30;152010;-71
2021/08/14 21:31:51;;;;;;;;;17.67;17.67;;;;;;;;2563553;38;151457;-72
2021/08/14 21:34:20;;;;;;;;;22.00;18.33;;;;;;;;2565074;30;151156;-72
2021/08/14 21:36:49;;;;;;;;;20.00;17.00;;;;;;;;2564371;38;149617;-72
2021/08/14 21:39:18;;;;;;;;;20.00;20.00;;;;;;;;2563222;30;150916;-72
2021/08/14 21:41:46;;;;;;;;;17.33;17.00;;;;;;;;2564244;38;151514;-72
2021/08/14 21:44:14;;;;;;;;;22.67;21.33;;;;;;;;2565422;30;150635;-73